Time;durP1;ratioP1;P1;durP2;ratioP2;P2;SDS_P1;SDS_P2;PMS_P1;PMS_P2;Temp;Humidity;BMP_temperature;BMP_pressure;BME280_temperature;BME280_humidity;BME280_pressure;Samples;Min_cycle;Max_cycle;Signal;HPM_P1;HPM_P2
2022/09/02 00:02:11;;;;;;;6.88;2.50;;;23.90;67.20;;;;;;4984537;28;20210;-63
2022/09/02 00:04:37;;;;;;;7.13;2.83;;;23.90;67.30;;;;;;4983031;28;20063;-63
2022/09/02 00:07:03;;;;;;;5.10;2.22;;;23.80;67.20;;;;;;4983247;28;20031;-62
2022/09/02 00:09:28;;;;;;;4.80;2.25;;;23.80;67.20;;;;;;4983911;28;20065;-63
2022/09/02 00:11:55;;;;;;;5.97;2.40;;;23.80;67.20;;;;;;4982502;28;20030;-63
2022/09/02 00:14:29;;;;;;;4.97;2.20;;;23.80;67.20;;;;;;4981299;28;20066;-62
2022/09/02 00:16:55;;;;;;;5.95;2.30;;;23.80;67.20;;;;;;4982130;28;20060;-62
2022/09/02 00:19:23;;;;;;;7.80;2.60;;;23.80;67.20;;;;;;4984064;28;20078;-63
2022/09/02 00:21:49;;;;;;;5.68;2.45;;;23.80;67.20;;;;;;4979367;28;20121;-62
2022/09/02 00:24:14;;;;;;;5.97;2.42;;;23.80;67.20;;;;;;4983851;28;20034;-62
2022/09/02 00:26:40;;;;;;;3.80;2.00;;;23.80;67.20;;;;;;4983712;28;20034;-62
2022/09/02 00:29:06;;;;;;;5.95;1.90;;;23.80;67.20;;;;;;4983205;28;20030;-62
2022/09/02 00:31:32;;;;;;;6.50;2.40;;;23.80;67.20;;;;;;4982784;28;20022;-63
2022/09/02 00:33:58;;;;;;;5.25;2.25;;;23.80;67.20;;;;;;4980017;28;20038;-62
2022/09/02 00:36:24;;;;;;;4.20;2.05;;;23.80;67.20;;;;;;4981924;28;20437;-63
2022/09/02 00:38:49;;;;;;;5.75;2.30;;;23.80;67.20;;;;;;4981692;28;20076;-62
2022/09/02 00:41:15;;;;;;;5.82;2.40;;;23.80;67.20;;;;;;4982666;28;20703;-63
2022/09/02 00:44:00;;;;;;;6.25;2.50;;;23.80;67.20;;;;;;4998740;28;20053;-62
2022/09/02 00:46:26;;;;;;;5.78;2.20;;;23.80;67.20;;;;;;4983426;28;20478;-62
2022/09/02 00:49:08;;;;;;;4.20;2.10;;;23.80;67.20;;;;;;4981714;28;20039;-63
2022/09/02 00:51:47;;;;;;;5.70;2.38;;;23.80;67.20;;;;;;4992258;28;20023;-63
2022/09/02 00:54:13;;;;;;;5.68;2.53;;;23.80;67.30;;;;;;4980738;28;20027;-63
2022/09/02 00:56:39;;;;;;;6.78;2.45;;;23.80;67.30;;;;;;4984053;28;20038;-63
2022/09/02 00:59:06;;;;;;;4.35;2.15;;;23.70;67.10;;;;;;4982953;28;20049;-63
2022/09/02 01:01:32;;;;;;;4.57;2.05;;;23.70;67.20;;;;;;4982540;28;20026;-64
2022/09/02 01:03:57;;;;;;;5.47;2.30;;;23.70;67.10;;;;;;4986474;28;20042;-63
2022/09/02 01:06:24;;;;;;;4.75;2.20;;;23.70;67.20;;;;;;4980763;28;20628;-63
2022/09/02 01:08:55;;;;;;;4.30;2.25;;;23.70;67.20;;;;;;5002764;28;20041;-64
2022/09/02 01:11:21;;;;;;;5.22;2.30;;;23.70;67.10;;;;;;5000670;28;20074;-63
2022/09/02 01:13:47;;;;;;;6.72;2.30;;;23.70;67.10;;;;;;4987024;28;20034;-63
2022/09/02 01:16:18;;;;;;;5.32;2.35;;;23.70;67.20;;;;;;4986332;28;20030;-63
2022/09/02 01:18:48;;;;;;;4.40;2.15;;;23.70;67.10;;;;;;5007396;28;20046;-63
2022/09/02 01:21:14;;;;;;;6.97;2.33;;;23.70;67.20;;;;;;5000270;28;20031;-63
2022/09/02 01:23:39;;;;;;;3.55;2.10;;;23.70;67.10;;;;;;4985430;28;20030;-62
2022/09/02 01:26:06;;;;;;;4.68;2.38;;;23.70;67.20;;;;;;4986109;28;20029;-63
2022/09/02 01:28:32;;;;;;;4.47;2.10;;;23.70;67.10;;;;;;4986367;28;20502;-63
2022/09/02 01:30:58;;;;;;;4.88;2.30;;;23.70;67.20;;;;;;4986276;28;20030;-63
2022/09/02 01:33:24;;;;;;;4.45;2.33;;;23.70;67.20;;;;;;4985800;28;20023;-63
2022/09/02 01:35:49;;;;;;;5.03;2.40;;;23.70;67.10;;;;;;4986169;28;20088;-62
2022/09/02 01:38:15;;;;;;;4.72;2.20;;;23.70;67.20;;;;;;4986132;28;20102;-62
2022/09/02 01:40:41;;;;;;;4.88;2.17;;;23.70;67.20;;;;;;4986061;28;20122;-62
2022/09/02 01:43:13;;;;;;;4.35;2.33;;;23.70;67.20;;;;;;4986977;28;20039;-62
2022/09/02 01:45:40;;;;;;;4.80;2.10;;;23.60;67.20;;;;;;4987032;28;20117;-62
2022/09/02 01:48:05;;;;;;;4.00;2.20;;;23.60;67.10;;;;;;4984951;28;20030;-63
2022/09/02 01:50:32;;;;;;;5.00;2.45;;;23.70;67.10;;;;;;4984791;28;20037;-62
2022/09/02 01:53:00;;;;;;;4.20;2.10;;;23.70;67.20;;;;;;4986146;28;20038;-62
2022/09/02 01:55:26;;;;;;;7.97;2.40;;;23.70;67.20;;;;;;4984892;28;20041;-62
2022/09/02 01:57:53;;;;;;;3.35;2.13;;;23.60;67.10;;;;;;4983043;28;20408;-63
2022/09/02 02:00:18;;;;;;;6.00;2.30;;;23.60;67.20;;;;;;4987458;28;20398;-62
2022/09/02 02:02:44;;;;;;;5.78;2.30;;;23.60;67.10;;;;;;4984802;28;20586;-62
2022/09/02 02:05:10;;;;;;;3.80;2.10;;;23.60;67.20;;;;;;4987418;28;20068;-62
2022/09/02 02:07:35;;;;;;;5.35;2.47;;;23.60;67.10;;;;;;4985714;28;20045;-63
2022/09/02 02:10:01;;;;;;;5.90;2.30;;;23.60;67.10;;;;;;4982984;28;20022;-63
2022/09/02 02:12:27;;;;;;;6.82;2.40;;;23.60;67.10;;;;;;4985314;28;20026;-62
2022/09/02 02:14:52;;;;;;;4.22;2.20;;;23.60;67.10;;;;;;4980193;28;20034;-63
2022/09/02 02:17:18;;;;;;;5.38;2.30;;;23.60;67.10;;;;;;4983609;28;20034;-63
2022/09/02 02:19:44;;;;;;;5.22;2.10;;;23.60;67.10;;;;;;4983639;28;20046;-62
2022/09/02 02:22:09;;;;;;;4.70;2.35;;;23.60;67.10;;;;;;4985210;28;20029;-62
2022/09/02 02:24:35;;;;;;;6.78;2.40;;;23.60;67.20;;;;;;4982727;28;20053;-62
2022/09/02 02:27:01;;;;;;;5.68;2.20;;;23.60;67.10;;;;;;4983572;28;20030;-62
2022/09/02 02:29:26;;;;;;;6.20;2.50;;;23.60;67.10;;;;;;4985279;28;20479;-62
2022/09/02 02:31:52;;;;;;;5.25;2.10;;;23.60;67.20;;;;;;4985927;28;20917;-63
2022/09/02 02:34:18;;;;;;;4.80;2.10;;;23.60;67.10;;;;;;4985692;28;20120;-63
2022/09/02 02:36:44;;;;;;;3.97;2.00;;;23.60;67.10;;;;;;4983504;28;20128;-63
2022/09/02 02:39:09;;;;;;;3.58;2.00;;;23.50;67.00;;;;;;4983985;28;20030;-62
2022/09/02 02:41:35;;;;;;;4.97;2.20;;;23.50;67.10;;;;;;4984967;28;20046;-63
2022/09/02 02:44:02;;;;;;;4.13;2.20;;;23.60;67.20;;;;;;4985024;28;20077;-62
2022/09/02 02:46:29;;;;;;;3.75;2.05;;;23.60;67.10;;;;;;4979877;28;20389;-62
2022/09/02 02:48:55;;;;;;;4.78;2.30;;;23.50;67.10;;;;;;4980646;28;20041;-63
2022/09/02 02:51:21;;;;;;;4.63;2.20;;;23.60;67.10;;;;;;4984757;28;20385;-62
2022/09/02 02:53:47;;;;;;;4.82;2.10;;;23.50;67.10;;;;;;4985017;28;20154;-62
2022/09/02 02:56:13;;;;;;;6.47;2.20;;;23.50;67.10;;;;;;4983825;28;20023;-63
2022/09/02 02:58:38;;;;;;;4.63;2.20;;;23.50;67.10;;;;;;4983947;28;20109;-62
2022/09/02 03:01:04;;;;;;;4.25;2.05;;;23.50;67.10;;;;;;4984094;28;20118;-62
2022/09/02 03:03:30;;;;;;;4.55;2.20;;;23.50;67.20;;;;;;4982102;28;20074;-63
2022/09/02 03:05:56;;;;;;;4.95;2.20;;;23.50;67.10;;;;;;4985846;28;20034;-62
2022/09/02 03:08:25;;;;;;;4.85;1.95;;;23.50;67.10;;;;;;4982088;28;20057;-62
2022/09/02 03:10:53;;;;;;;4.75;2.20;;;23.50;67.10;;;;;;4984234;28;20398;-63
2022/09/02 03:13:20;;;;;;;4.32;2.25;;;23.50;67.10;;;;;;4982191;28;20442;-62
2022/09/02 03:15:46;;;;;;;4.28;2.10;;;23.50;67.10;;;;;;4981867;28;20034;-62
2022/09/02 03:18:11;;;;;;;4.57;2.10;;;23.50;67.10;;;;;;4979954;28;20046;-62
2022/09/02 03:20:38;;;;;;;3.03;1.95;;;23.50;67.20;;;;;;4984452;28;20495;-62
2022/09/02 03:23:04;;;;;;;5.85;2.30;;;23.50;67.10;;;;;;4983161;28;20045;-63
2022/09/02 03:25:30;;;;;;;4.95;2.08;;;23.50;67.10;;;;;;4982932;28;20027;-63
2022/09/02 03:27:56;;;;;;;4.82;2.20;;;23.50;67.10;;;;;;4983012;28;20026;-63
2022/09/02 03:30:24;;;;;;;3.13;1.90;;;23.50;67.10;;;;;;4982224;28;20045;-62
2022/09/02 03:32:54;;;;;;;4.20;2.05;;;23.50;67.10;;;;;;4984283;28;20041;-62
2022/09/02 03:35:20;;;;;;;3.80;2.10;;;23.40;67.10;;;;;;4997885;28;20699;-62
2022/09/02 03:37:46;;;;;;;3.47;1.90;;;23.50;67.10;;;;;;4983116;28;20604;-62
2022/09/02 03:40:17;;;;;;;4.43;2.00;;;23.50;67.10;;;;;;4983740;28;20026;-62
2022/09/02 03:42:42;;;;;;;3.45;2.00;;;23.50;67.10;;;;;;4985400;28;20141;-63
2022/09/02 03:45:09;;;;;;;4.70;2.00;;;23.40;67.10;;;;;;4979368;28;20553;-62
2022/09/02 03:47:35;;;;;;;4.50;2.17;;;23.40;67.20;;;;;;4983234;28;20040;-63
2022/09/02 03:50:02;;;;;;;3.72;2.00;;;23.40;67.10;;;;;;4981346;28;20054;-63
2022/09/02 03:52:28;;;;;;;4.10;2.20;;;23.40;67.10;;;;;;4982749;28;20056;-63
2022/09/02 03:54:54;;;;;;;4.13;2.08;;;23.40;67.10;;;;;;4985040;28;20041;-63
2022/09/02 03:57:21;;;;;;;3.45;2.08;;;23.40;67.20;;;;;;4981964;28;20391;-62
2022/09/02 03:59:47;;;;;;;2.80;1.90;;;23.40;67.20;;;;;;4980170;28;20510;-62
2022/09/02 04:02:13;;;;;;;3.58;2.00;;;23.40;67.10;;;;;;4981884;28;20033;-62
2022/09/02 04:04:39;;;;;;;3.47;2.20;;;23.40;67.10;;;;;;4981357;28;20042;-62
2022/09/02 04:07:04;;;;;;;4.93;2.00;;;23.40;67.10;;;;;;4983259;28;20037;-62
2022/09/02 04:09:30;;;;;;;4.25;2.15;;;23.40;67.10;;;;;;4982524;28;20120;-62
2022/09/02 04:11:56;;;;;;;5.78;2.30;;;23.40;67.10;;;;;;4983002;28;20027;-62
2022/09/02 04:14:21;;;;;;;4.97;1.98;;;23.40;67.10;;;;;;4981005;28;20034;-62
2022/09/02 04:16:47;;;;;;;3.45;2.10;;;23.40;67.10;;;;;;4981260;28;20034;-63
2022/09/02 04:19:13;;;;;;;3.60;2.08;;;23.40;67.10;;;;;;4982015;28;20059;-62
2022/09/02 04:21:39;;;;;;;3.22;1.73;;;23.40;67.10;;;;;;4986536;28;20041;-62
2022/09/02 04:24:05;;;;;;;3.58;1.90;;;23.40;67.10;;;;;;4980703;28;20056;-62
2022/09/02 04:26:31;;;;;;;3.95;1.90;;;23.30;67.10;;;;;;4985353;28;20030;-62
2022/09/02 04:28:57;;;;;;;4.40;2.28;;;23.30;67.00;;;;;;4988398;28;20027;-62
2022/09/02 04:31:28;;;;;;;4.22;2.05;;;23.30;67.10;;;;;;4978906;28;20430;-63
2022/09/02 04:33:55;;;;;;;3.70;2.00;;;23.40;67.10;;;;;;4981817;28;20045;-63
2022/09/02 04:36:21;;;;;;;3.35;2.00;;;23.30;67.00;;;;;;4984445;28;20121;-62
2022/09/02 04:38:46;;;;;;;3.97;2.10;;;23.30;67.20;;;;;;4982988;28;20105;-62
2022/09/02 04:41:14;;;;;;;4.38;2.10;;;23.30;67.10;;;;;;4986917;28;20045;-62
2022/09/02 04:43:40;;;;;;;5.60;2.20;;;23.30;67.00;;;;;;4987073;28;20042;-62
2022/09/02 04:46:08;;;;;;;3.67;2.03;;;23.30;67.10;;;;;;4985104;28;20029;-63
2022/09/02 04:48:35;;;;;;;5.40;2.05;;;23.30;67.10;;;;;;4986796;28;20096;-62
2022/09/02 04:51:09;;;;;;;5.53;2.10;;;23.30;67.00;;;;;;4984631;28;20033;-62
2022/09/02 04:53:35;;;;;;;3.53;2.10;;;23.30;67.00;;;;;;4987249;28;20039;-62
2022/09/02 04:56:06;;;;;;;3.85;2.00;;;23.30;67.00;;;;;;4984549;28;20652;-63
2022/09/02 04:58:32;;;;;;;3.05;2.00;;;23.30;67.00;;;;;;4985218;28;20022;-63
2022/09/02 05:00:57;;;;;;;3.85;2.08;;;23.30;67.20;;;;;;4985380;28;20033;-62
2022/09/02 05:03:25;;;;;;;3.45;1.90;;;23.30;67.50;;;;;;4989389;28;20056;-62
2022/09/02 05:06:04;;;;;;;5.38;2.13;;;23.40;67.70;;;;;;4987552;28;20031;-62
2022/09/02 05:08:30;;;;;;;3.97;2.00;;;23.30;67.30;;;;;;4987811;28;20139;-61
2022/09/02 05:10:56;;;;;;;2.70;1.90;;;23.40;67.60;;;;;;4987395;28;20062;-63
2022/09/02 05:13:24;;;;;;;4.78;2.08;;;23.30;67.60;;;;;;4987791;28;20116;-63
2022/09/02 05:15:50;;;;;;;6.22;2.38;;;23.30;67.60;;;;;;4984239;28;20447;-63
2022/09/02 05:18:16;;;;;;;5.82;2.20;;;23.30;67.80;;;;;;4983432;28;20054;-63
2022/09/02 05:20:42;;;;;;;4.38;1.92;;;23.30;68.10;;;;;;4985983;28;20552;-64
2022/09/02 05:23:11;;;;;;;7.53;2.30;;;23.30;67.80;;;;;;4983242;28;20144;-65
2022/09/02 05:25:38;;;;;;;5.93;2.33;;;23.40;68.10;;;;;;4987583;28;20038;-64
2022/09/02 05:28:04;;;;;;;7.32;2.38;;;23.40;68.10;;;;;;4985483;28;20069;-63
2022/09/02 05:30:30;;;;;;;9.20;2.40;;;23.40;68.00;;;;;;4984749;28;20026;-62
2022/09/02 05:32:56;;;;;;;10.02;2.20;;;23.30;67.90;;;;;;5002872;28;20158;-65
2022/09/02 05:35:23;;;;;;;7.22;2.28;;;23.40;68.00;;;;;;4986155;28;20729;-64
2022/09/02 05:37:49;;;;;;;6.18;2.30;;;23.30;68.10;;;;;;4985848;28;20076;-64
2022/09/02 05:40:15;;;;;;;4.97;2.10;;;23.40;68.20;;;;;;5002398;28;20038;-64
2022/09/02 05:42:40;;;;;;;5.32;2.38;;;23.40;67.90;;;;;;4984817;28;20507;-64
2022/09/02 05:45:07;;;;;;;5.00;2.20;;;23.40;68.00;;;;;;4986625;28;20044;-62
2022/09/02 05:47:33;;;;;;;7.80;2.85;;;23.30;68.10;;;;;;4985447;28;20085;-62
2022/09/02 05:50:00;;;;;;;6.40;2.13;;;23.30;67.90;;;;;;4986816;28;20533;-62
2022/09/02 05:52:26;;;;;;;8.63;2.58;;;23.30;68.00;;;;;;4984972;28;20035;-62
2022/09/02 05:54:53;;;;;;;6.45;2.25;;;23.30;67.70;;;;;;4985960;28;20022;-62
2022/09/02 05:57:18;;;;;;;6.82;2.30;;;23.30;67.70;;;;;;5002512;28;20038;-62
2022/09/02 05:59:45;;;;;;;9.70;2.67;;;23.30;67.90;;;;;;4986144;28;20193;-62
2022/09/02 06:02:11;;;;;;;6.03;2.17;;;23.30;67.80;;;;;;4982618;28;20062;-62
2022/09/02 06:04:44;;;;;;;9.95;2.50;;;23.30;67.90;;;;;;4986744;28;20674;-62
2022/09/02 06:07:10;;;;;;;7.65;2.40;;;23.30;67.90;;;;;;4983871;28;20030;-62
2022/09/02 06:09:36;;;;;;;9.07;2.42;;;23.30;67.80;;;;;;4985262;28;20030;-62
2022/09/02 06:12:02;;;;;;;6.45;2.60;;;23.30;67.90;;;;;;4986433;28;20495;-62
2022/09/02 06:14:27;;;;;;;8.32;2.83;;;23.30;67.80;;;;;;4985539;28;20038;-62
2022/09/02 06:16:53;;;;;;;7.82;2.58;;;23.30;67.90;;;;;;4986780;28;20022;-62
2022/09/02 06:19:20;;;;;;;6.60;2.40;;;23.30;67.90;;;;;;4982556;28;20635;-62
2022/09/02 06:21:46;;;;;;;8.05;2.38;;;23.20;67.80;;;;;;4982478;28;20018;-62
2022/09/02 06:24:11;;;;;;;9.10;2.47;;;23.30;67.90;;;;;;4983890;28;20096;-62
2022/09/02 06:26:37;;;;;;;10.48;2.67;;;23.30;67.80;;;;;;4986093;28;20026;-62
2022/09/02 06:29:03;;;;;;;7.32;2.40;;;23.30;67.90;;;;;;4985134;28;20130;-62
2022/09/02 06:31:29;;;;;;;8.27;2.65;;;23.20;67.80;;;;;;4982203;28;20110;-62
2022/09/02 06:33:55;;;;;;;9.25;2.40;;;23.20;67.90;;;;;;4982603;28;20411;-62
2022/09/02 06:36:22;;;;;;;8.98;2.58;;;23.30;67.90;;;;;;4984950;28;20027;-62
2022/09/02 06:38:48;;;;;;;6.95;2.40;;;23.20;67.90;;;;;;4984297;28;20037;-62
2022/09/02 06:41:17;;;;;;;7.78;2.50;;;23.30;67.80;;;;;;4985950;28;20031;-62
2022/09/02 06:43:43;;;;;;;5.65;2.35;;;23.20;67.90;;;;;;4987128;28;20066;-62
2022/09/02 06:46:14;;;;;;;5.45;2.17;;;23.20;67.90;;;;;;4984841;28;20132;-62
2022/09/02 06:48:40;;;;;;;7.15;2.35;;;23.20;67.90;;;;;;4982476;28;20618;-62
2022/09/02 06:51:06;;;;;;;7.60;2.47;;;23.20;67.90;;;;;;4984418;28;20109;-62
2022/09/02 06:53:31;;;;;;;7.00;2.38;;;23.20;67.90;;;;;;4984034;28;20034;-62
2022/09/02 06:55:57;;;;;;;12.98;2.50;;;23.20;67.90;;;;;;4986927;28;20041;-62
2022/09/02 06:58:23;;;;;;;7.85;2.60;;;23.20;67.90;;;;;;4982357;28;20029;-62
2022/09/02 07:00:48;;;;;;;7.07;2.40;;;23.20;67.90;;;;;;4982567;28;20136;-62
2022/09/02 07:06:08;;;;;;;7.15;2.40;;;23.20;67.90;;;;;;4984821;28;20034;-62
2022/09/02 07:08:38;;;;;;;7.30;2.30;;;23.20;67.90;;;;;;4984306;28;20034;-62
2022/09/02 07:11:04;;;;;;;7.05;2.20;;;23.20;68.00;;;;;;4983890;28;20030;-62
2022/09/02 07:13:30;;;;;;;7.03;2.40;;;23.20;67.90;;;;;;4985801;28;20052;-62
2022/09/02 07:15:56;;;;;;;8.95;2.47;;;23.20;68.00;;;;;;4982442;28;20015;-62
2022/09/02 07:18:22;;;;;;;8.93;2.45;;;23.20;68.00;;;;;;4982816;28;20435;-62
2022/09/02 07:20:47;;;;;;;6.90;2.40;;;23.20;67.90;;;;;;4983930;28;20027;-62
2022/09/02 07:23:13;;;;;;;5.82;2.50;;;23.20;67.90;;;;;;4986130;28;20054;-62
2022/09/02 07:25:42;;;;;;;6.05;2.40;;;23.20;67.90;;;;;;4982819;28;20417;-62
2022/09/02 07:28:09;;;;;;;8.20;2.30;;;23.20;67.90;;;;;;4981167;28;20042;-62
2022/09/02 07:30:34;;;;;;;5.13;2.17;;;23.20;67.90;;;;;;4980134;28;20113;-62
2022/09/02 07:33:00;;;;;;;5.72;2.47;;;23.10;67.90;;;;;;4982379;28;20063;-61
2022/09/02 07:35:27;;;;;;;6.00;2.33;;;23.20;68.00;;;;;;4979948;28;20026;-61
2022/09/02 07:37:52;;;;;;;6.25;2.35;;;23.10;68.10;;;;;;4985419;28;20446;-61
2022/09/02 07:40:22;;;;;;;6.93;2.40;;;23.20;68.20;;;;;;4985237;28;20116;-61
2022/09/02 07:42:49;;;;;;;6.57;2.35;;;23.20;68.30;;;;;;4985033;28;20530;-62
2022/09/02 07:45:14;;;;;;;8.38;2.35;;;23.20;68.20;;;;;;4981948;28;20038;-61
2022/09/02 07:47:40;;;;;;;6.82;2.30;;;23.20;68.00;;;;;;4985400;28;20513;-61
2022/09/02 07:50:07;;;;;;;6.22;2.30;;;23.20;67.90;;;;;;4990093;28;20863;-61
2022/09/02 07:52:33;;;;;;;4.68;2.08;;;23.20;68.10;;;;;;4984242;28;20398;-61
2022/09/02 07:54:59;;;;;;;6.07;2.40;;;23.20;68.20;;;;;;4984909;28;20018;-61
2022/09/02 07:57:24;;;;;;;4.97;2.15;;;23.20;68.20;;;;;;4983220;28;20045;-61
2022/09/02 07:59:50;;;;;;;6.13;2.20;;;23.20;68.20;;;;;;4984362;28;20065;-61
2022/09/02 08:02:17;;;;;;;5.82;2.30;;;23.20;68.20;;;;;;4984225;28;20600;-61
2022/09/02 08:04:43;;;;;;;5.45;2.20;;;23.20;69.20;;;;;;4978416;28;20077;-61
2022/09/02 08:07:22;;;;;;;7.05;2.40;;;23.20;68.30;;;;;;4984416;28;20062;-61
2022/09/02 08:09:52;;;;;;;5.43;2.17;;;23.20;68.50;;;;;;4983757;28;20452;-61
2022/09/02 08:12:22;;;;;;;6.75;2.40;;;23.20;68.50;;;;;;4988138;28;20030;-61
2022/09/02 08:14:50;;;;;;;4.32;2.03;;;23.20;68.30;;;;;;4987144;28;20045;-61
2022/09/02 08:17:17;;;;;;;5.10;2.42;;;23.20;68.20;;;;;;4987550;28;20030;-61
2022/09/02 08:19:43;;;;;;;4.85;2.38;;;23.20;68.20;;;;;;4990792;28;20078;-61
2022/09/02 08:22:09;;;;;;;7.13;2.30;;;23.20;68.20;;;;;;4988561;28;20565;-61
2022/09/02 08:24:35;;;;;;;5.43;2.47;;;23.20;68.30;;;;;;4983384;28;20039;-61
2022/09/02 08:27:03;;;;;;;5.10;2.03;;;23.20;68.30;;;;;;4988846;28;20049;-61
2022/09/02 08:29:34;;;;;;;4.18;2.10;;;23.20;68.30;;;;;;4987451;28;20546;-61
2022/09/02 08:32:01;;;;;;;5.85;2.20;;;23.20;68.20;;;;;;4987100;28;20030;-62
2022/09/02 08:34:33;;;;;;;7.85;2.25;;;23.20;68.50;;;;;;4984952;28;20023;-61
2022/09/02 08:37:00;;;;;;;5.55;2.38;;;23.30;68.30;;;;;;4986303;28;20114;-61
2022/09/02 08:39:31;;;;;;;5.82;2.20;;;23.30;68.90;;;;;;4987602;28;20451;-62
2022/09/02 08:42:26;;;;;;;6.68;2.25;;;23.30;69.00;;;;;;4984889;28;20679;-61
2022/09/02 08:44:54;;;;;;;5.75;2.40;;;23.30;68.70;;;;;;4983409;28;20504;-61
2022/09/02 08:47:28;;;;;;;6.22;2.30;;;23.30;68.60;;;;;;4988565;28;20031;-63
2022/09/02 08:50:00;;;;;;;6.07;2.55;;;23.30;68.70;;;;;;4968031;28;20026;-62
2022/09/02 08:53:00;;;;;;;6.60;2.47;;;23.40;68.90;;;;;;5001642;28;20486;-63
2022/09/02 08:56:07;;;;;;;7.68;2.50;;;23.30;68.70;;;;;;4986268;28;20104;-60
2022/09/02 08:58:46;;;;;;;7.18;2.20;;;23.40;68.70;;;;;;4984507;28;20080;-62
2022/09/02 09:01:23;;;;;;;5.13;1.92;;;23.40;68.60;;;;;;5002611;28;20030;-63
2022/09/02 09:04:09;;;;;;;6.97;2.28;;;23.40;68.20;;;;;;4983496;28;20099;-63
2022/09/02 09:07:00;;;;;;;5.40;2.08;;;23.40;68.30;;;;;;4987686;28;20518;-62
2022/09/02 09:09:42;;;;;;;7.10;2.03;;;23.40;68.30;;;;;;4985556;28;20069;-63
2022/09/02 09:13:00;;;;;;;5.03;2.20;;;23.50;68.50;;;;;;4985240;28;20034;-62
2022/09/02 09:16:06;;;;;;;5.47;2.47;;;23.40;68.20;;;;;;4957014;28;20043;-63
2022/09/02 09:18:55;;;;;;;5.15;2.20;;;23.40;68.50;;;;;;4959791;28;20089;-62
2022/09/02 09:21:25;;;;;;;6.25;2.08;;;23.40;68.60;;;;;;4957151;28;20035;-62
2022/09/02 09:23:57;;;;;;;7.63;2.30;;;23.40;68.30;;;;;;4960149;28;20070;-64
2022/09/02 09:26:29;;;;;;;6.47;2.22;;;23.40;68.70;;;;;;4960590;28;20126;-63
2022/09/02 09:28:59;;;;;;;7.70;2.10;;;23.40;68.50;;;;;;4961697;28;20073;-62
2022/09/02 09:31:29;;;;;;;4.93;2.38;;;23.40;68.70;;;;;;4955719;28;20534;-62
2022/09/02 09:34:15;;;;;;;3.95;2.20;;;23.50;68.50;;;;;;4959611;28;20035;-59
2022/09/02 09:36:41;;;;;;;5.57;2.40;;;23.50;68.60;;;;;;4959021;28;20038;-63
2022/09/02 09:39:28;;;;;;;5.03;2.20;;;23.50;68.70;;;;;;4952890;28;20043;-63
2022/09/02 09:42:11;;;;;;;5.20;2.38;;;23.50;68.60;;;;;;4954926;28;20035;-63
2022/09/02 09:44:48;;;;;;;7.35;2.30;;;23.50;68.60;;;;;;4941030;28;20404;-62
2022/09/02 09:47:22;;;;;;;5.78;1.92;;;23.50;68.60;;;;;;4976023;28;20046;-62
2022/09/02 09:49:49;;;;;;;;;;;23.50;68.60;;;;;;4970504;28;20093;-62
2022/09/02 09:52:25;;;;;;;4.55;2.05;;;23.50;68.50;;;;;;5001838;28;19906;-63
2022/09/02 09:55:10;;;;;;;7.05;2.10;;;23.50;68.50;;;;;;4981002;28;20018;-63
2022/09/02 10:00:59;;;;;;;5.05;2.10;;;23.50;68.50;;;;;;4981554;28;20526;-63
2022/09/02 10:03:28;;;;;;;3.67;1.98;;;23.50;68.40;;;;;;5000861;28;20449;-63
2022/09/02 10:05:56;;;;;;;5.93;2.30;;;23.60;68.50;;;;;;4984583;28;20030;-62
2022/09/02 10:08:24;;;;;;;6.30;2.40;;;23.60;68.50;;;;;;4967782;28;20049;-61
2022/09/02 10:10:56;;;;;;;4.25;2.15;;;23.60;68.80;;;;;;4985671;28;20023;-64
2022/09/02 10:13:24;;;;;;;5.18;2.20;;;23.60;68.40;;;;;;4984398;28;20459;-63
2022/09/02 10:16:25;;;;;;;5.07;2.30;;;23.60;68.50;;;;;;4986107;28;20072;-63
2022/09/02 10:19:00;;;;;;;4.15;2.20;;;23.60;68.40;;;;;;4997084;28;20046;-63
2022/09/02 10:21:39;;;;;;;7.90;2.40;;;23.60;68.30;;;;;;4983942;28;20387;-63
2022/09/02 10:24:30;;;;;;;12.18;2.25;;;23.60;68.40;;;;;;4980340;28;20034;-63
2022/09/02 10:26:57;;;;;;;5.97;2.13;;;23.70;68.40;;;;;;4998536;28;20030;-62
2022/09/02 10:29:30;;;;;;;4.28;2.20;;;23.60;68.30;;;;;;4998335;28;20030;-61
2022/09/02 10:32:19;;;;;;;4.25;2.15;;;23.60;68.40;;;;;;4982126;28;20022;-62
2022/09/02 10:35:03;;;;;;;5.93;2.10;;;23.60;68.40;;;;;;4986683;28;20113;-62
2022/09/02 10:37:50;;;;;;;5.25;2.13;;;23.70;68.50;;;;;;4982759;28;20030;-62
2022/09/02 10:40:18;;;;;;;5.07;2.25;;;23.60;68.40;;;;;;4981330;28;20487;-62
2022/09/02 10:43:06;;;;;;;5.70;2.33;;;23.70;68.30;;;;;;4986272;28;20113;-62
2022/09/02 10:45:48;;;;;;;4.22;2.15;;;23.70;68.40;;;;;;5000992;28;20084;-63
2022/09/02 10:48:35;;;;;;;5.95;2.45;;;23.70;68.30;;;;;;4981011;28;20108;-62
2022/09/02 10:51:22;;;;;;;4.40;2.28;;;23.70;68.30;;;;;;4984003;28;20088;-63
2022/09/02 10:54:02;;;;;;;6.28;2.30;;;23.70;68.30;;;;;;4989743;28;20515;-63
2022/09/02 10:56:33;;;;;;;6.32;2.22;;;23.70;68.20;;;;;;4982145;28;20038;-62
2022/09/02 10:59:05;;;;;;;5.97;2.20;;;23.70;68.30;;;;;;4985106;28;20027;-62
2022/09/02 11:01:40;;;;;;;4.20;1.98;;;23.70;68.20;;;;;;4999021;28;20027;-63
2022/09/02 11:04:12;;;;;;;;;;;23.70;68.10;;;;;;4982775;28;20066;-63
2022/09/02 11:06:39;;;;;;;3.65;1.90;;;23.70;68.10;;;;;;4998971;28;19910;-61
2022/09/02 11:09:28;;;;;;;5.25;2.00;;;23.70;68.00;;;;;;4984396;28;20026;-62
2022/09/02 11:11:59;;;;;;;4.93;2.10;;;23.80;68.10;;;;;;4982990;28;20535;-62
2022/09/02 11:14:47;;;;;;;4.30;2.00;;;23.80;68.00;;;;;;4998864;28;20030;-62
2022/09/02 11:17:30;;;;;;;6.00;2.13;;;23.80;67.90;;;;;;4983079;28;20128;-63
2022/09/02 11:20:01;;;;;;;5.28;2.35;;;23.90;67.90;;;;;;5003642;28;20462;-60
2022/09/02 11:22:27;;;;;;;4.40;2.30;;;23.90;67.70;;;;;;4983378;28;20108;-60
2022/09/02 11:25:02;;;;;;;6.32;2.17;;;23.80;67.90;;;;;;4987408;28;21639;-60
2022/09/02 11:27:55;;;;;;;4.45;1.90;;;23.80;67.80;;;;;;5014490;28;20568;-60
2022/09/02 11:30:22;;;;;;;4.35;2.17;;;23.90;67.80;;;;;;4983967;28;20042;-60
2022/09/02 11:33:13;;;;;;;3.95;1.88;;;23.90;67.70;;;;;;4982396;28;20014;-60
2022/09/02 11:35:41;;;;;;;5.35;2.28;;;23.90;67.70;;;;;;4983883;28;20034;-60
2022/09/02 11:38:21;;;;;;;6.07;2.22;;;24.00;67.60;;;;;;4983453;28;20065;-60
2022/09/02 11:40:48;;;;;;;5.90;2.10;;;24.00;67.50;;;;;;4980734;28;20019;-60
2022/09/02 11:43:39;;;;;;;5.10;2.10;;;24.00;67.40;;;;;;4987754;28;20494;-60
2022/09/02 11:46:22;;;;;;;4.07;1.90;;;24.00;67.30;;;;;;4981565;28;20034;-59
2022/09/02 11:49:07;;;;;;;4.47;2.00;;;24.10;67.40;;;;;;4994601;28;20038;-60
2022/09/02 11:51:44;;;;;;;4.78;2.17;;;24.10;67.10;;;;;;4986433;28;20030;-60
2022/09/02 11:54:12;;;;;;;3.95;1.90;;;24.10;67.10;;;;;;4983028;28;20031;-61
2022/09/02 11:56:44;;;;;;;3.25;1.80;;;24.20;67.00;;;;;;4985220;28;20041;-60
2022/09/02 11:59:21;;;;;;;3.33;2.00;;;24.20;66.90;;;;;;5000898;28;20033;-61
2022/09/02 12:01:53;;;;;;;5.03;2.05;;;24.30;67.00;;;;;;4979745;28;20076;-60
2022/09/02 12:04:25;;;;;;;4.25;1.98;;;24.30;66.80;;;;;;4999516;28;20474;-60
2022/09/02 12:07:06;;;;;;;5.38;2.03;;;24.30;66.70;;;;;;4981495;28;20084;-60
2022/09/02 12:09:50;;;;;;;4.40;2.00;;;24.30;66.60;;;;;;4984129;28;20030;-60
2022/09/02 12:12:38;;;;;;;5.85;2.00;;;24.30;66.40;;;;;;4983668;28;20113;-60
2022/09/02 12:15:03;;;;;;;5.75;2.30;;;24.40;66.50;;;;;;4982776;28;20451;-60
2022/09/02 12:17:38;;;;;;;3.78;2.00;;;24.40;66.50;;;;;;4984183;28;20033;-65
2022/09/02 12:20:10;;;;;;;3.97;1.83;;;24.40;66.40;;;;;;4984174;28;20053;-64
2022/09/02 12:22:37;;;;;;;4.50;2.00;;;24.50;66.40;;;;;;4984268;28;20031;-64
2022/09/02 12:25:23;;;;;;;4.82;2.33;;;24.50;66.30;;;;;;4995511;28;20039;-62
2022/09/02 12:27:49;;;;;;;5.90;2.00;;;24.60;66.30;;;;;;4981856;28;20113;-64
2022/09/02 12:30:15;;;;;;;5.10;1.98;;;24.60;67.30;;;;;;4983604;28;20142;-63
2022/09/02 12:32:49;;;;;;;4.07;1.90;;;24.60;66.10;;;;;;4999469;28;20469;-63
2022/09/02 12:35:48;;;;;;;3.63;1.95;;;24.60;66.00;;;;;;4980132;28;20076;-63
2022/09/02 12:38:14;;;;;;;4.30;2.05;;;24.70;65.90;;;;;;4994113;28;20031;-63
2022/09/02 12:41:04;;;;;;;4.10;2.13;;;24.70;65.90;;;;;;4980608;28;20128;-64
2022/09/02 12:43:40;;;;;;;4.10;1.90;;;24.70;65.70;;;;;;4980009;28;20503;-63
2022/09/02 12:46:16;;;;;;;3.55;2.10;;;24.80;65.60;;;;;;4979241;28;20041;-64
2022/09/02 12:48:47;;;;;;;2.53;1.63;;;24.70;65.60;;;;;;5000102;28;20019;-63
2022/09/02 12:51:41;;;;;;;3.92;2.00;;;24.80;65.50;;;;;;4979911;28;20067;-63
2022/09/02 12:54:06;;;;;;;4.13;1.85;;;24.80;65.40;;;;;;4995584;28;20034;-65
2022/09/02 12:56:32;;;;;;;5.03;2.00;;;24.90;65.40;;;;;;4997817;28;20413;-65
2022/09/02 12:58:58;;;;;;;4.43;2.00;;;24.90;65.30;;;;;;4998643;28;20027;-64
2022/09/02 13:01:42;;;;;;;4.75;2.10;;;24.90;65.20;;;;;;4999326;28;20042;-65
2022/09/02 13:04:21;;;;;;;4.47;1.98;;;24.90;65.20;;;;;;4983645;28;20034;-66
2022/09/02 13:06:55;;;;;;;4.88;2.20;;;24.90;65.10;;;;;;4985677;28;20113;-62
2022/09/02 13:09:41;;;;;;;4.05;2.10;;;24.90;65.20;;;;;;5001512;28;20034;-61
2022/09/02 13:12:34;;;;;;;4.95;2.00;;;25.00;65.00;;;;;;4986390;28;20042;-62